createdAt,value
2022-08-02T00:00:13.179Z,99902.59
2022-08-02T00:02:43.265Z,99935.22
2022-08-02T00:05:10.801Z,99945.50
2022-08-02T00:07:41.177Z,99942.31
2022-08-02T00:10:10.621Z,99942.09
2022-08-02T00:12:38.467Z,99940.75
2022-08-02T00:15:07.520Z,99943.44
2022-08-02T00:17:34.196Z,99930.63
2022-08-02T00:20:02.103Z,99929.13
2022-08-02T00:22:28.770Z,99917.44
2022-08-02T00:24:55.422Z,99948.66
2022-08-02T00:27:22.127Z,99931.69
2022-08-02T00:29:52.840Z,99946.94
2022-08-02T00:32:23.036Z,99949.41
2022-08-02T00:34:50.800Z,99951.66
2022-08-02T00:37:17.570Z,99942.50
2022-08-02T00:39:44.559Z,99948.09
2022-08-02T00:42:14.698Z,99953.41
2022-08-02T00:44:41.758Z,99924.69
2022-08-02T00:47:08.538Z,99949.78
2022-08-02T00:49:35.250Z,99946.31
2022-08-02T00:52:02.023Z,99946.03
2022-08-02T00:54:28.821Z,99959.94
2022-08-02T00:56:55.531Z,99950.50
2022-08-02T00:59:22.248Z,99945.94
2022-08-02T01:01:56.366Z,99949.00
2022-08-02T01:04:26.599Z,99924.03
2022-08-02T01:07:03.982Z,99958.06
2022-08-02T01:09:42.931Z,99977.84
2022-08-02T01:12:10.913Z,99974.69
2022-08-02T01:14:38.726Z,99972.69
2022-08-02T01:17:30.155Z,99968.66
2022-08-02T01:20:15.974Z,99972.28
2022-08-02T01:23:04.566Z,99978.59
2022-08-02T01:25:58.019Z,99973.03
2022-08-02T01:28:49.005Z,99974.66
2022-08-02T01:31:26.839Z,99985.44
2022-08-02T01:34:16.501Z,99980.66
2022-08-02T01:36:48.238Z,99979.53
2022-08-02T01:39:26.405Z,99993.66
2022-08-02T01:42:01.082Z,99993.41
2022-08-02T01:44:31.737Z,100001.50
2022-08-02T01:47:02.298Z,99979.94
2022-08-02T01:49:32.524Z,100005.22
2022-08-02T01:52:19.856Z,100008.84
2022-08-02T01:54:50.362Z,100014.47
2022-08-02T01:57:21.016Z,100017.06
2022-08-02T01:59:49.628Z,100023.13
2022-08-02T02:02:19.512Z,99984.69
2022-08-02T02:04:49.947Z,99989.00
2022-08-02T02:07:18.707Z,100016.00
2022-08-02T02:09:47.836Z,100004.25
2022-08-02T02:12:19.435Z,100006.44
2022-08-02T02:14:51.388Z,100008.28
2022-08-02T02:18:10.722Z,99983.13
2022-08-02T02:20:12.959Z,99958.63
2022-08-02T02:22:39.796Z,99995.91
2022-08-02T02:25:08.998Z,99984.13
2022-08-02T02:27:42.557Z,99984.69
2022-08-02T02:30:12.267Z,99999.47
2022-08-02T02:32:43.176Z,99991.25
2022-08-02T02:35:11.917Z,99989.13
2022-08-02T02:37:39.658Z,99995.09
2022-08-02T02:40:08.652Z,99994.16
2022-08-02T02:42:35.707Z,99998.72
2022-08-02T02:45:04.187Z,99989.97
2022-08-02T02:47:41.352Z,99993.72
2022-08-02T02:50:09.723Z,99995.44
2022-08-02T02:52:39.632Z,99992.53
2022-08-02T02:55:08.519Z,99993.00
2022-08-02T02:57:37.282Z,99998.03
2022-08-02T03:00:12.939Z,99968.50
2022-08-02T03:02:42.283Z,99975.41
2022-08-02T03:05:10.667Z,99996.31
2022-08-02T03:07:38.335Z,99997.03
2022-08-02T03:10:06.964Z,100011.97
2022-08-02T03:12:34.959Z,99999.94
2022-08-02T03:15:07.814Z,100003.31
2022-08-02T03:17:52.668Z,100011.84
2022-08-02T03:20:20.610Z,100002.94
2022-08-02T03:22:48.172Z,100005.41
2022-08-02T03:25:16.237Z,99998.88
2022-08-02T03:27:43.707Z,99986.28
2022-08-02T03:30:12.103Z,100002.41
2022-08-02T03:32:40.678Z,99999.81
2022-08-02T03:35:10.354Z,99962.78
2022-08-02T03:37:38.058Z,100002.72
2022-08-02T03:40:10.786Z,100007.41
2022-08-02T03:42:40.031Z,100017.34
2022-08-02T03:45:09.200Z,100000.28
2022-08-02T03:47:38.313Z,100012.06
2022-08-02T03:50:07.600Z,100019.44
2022-08-02T03:52:34.619Z,99998.28
2022-08-02T03:55:01.464Z,100005.88
2022-08-02T03:57:28.447Z,99994.44
2022-08-02T03:59:55.130Z,99987.28
2022-08-02T04:02:21.873Z,99998.03
2022-08-02T04:04:48.504Z,100034.13
2022-08-02T04:07:15.167Z,100035.97
2022-08-02T04:10:01.812Z,99999.22
2022-08-02T04:12:28.524Z,100032.06
2022-08-02T04:14:55.246Z,99954.38
2022-08-02T04:17:23.644Z,100028.16
2022-08-02T04:19:54.926Z,99966.16
2022-08-02T04:22:27.488Z,100023.16
2022-08-02T04:25:06.163Z,100026.66
2022-08-02T04:27:50.492Z,100021.19
2022-08-02T04:30:25.242Z,99984.97
2022-08-02T04:32:52.433Z,100018.03
2022-08-02T04:35:20.359Z,100035.91
2022-08-02T04:38:08.694Z,100042.78
2022-08-02T04:40:35.354Z,100045.22
2022-08-02T04:43:01.991Z,100057.16
2022-08-02T04:45:30.389Z,100049.56
2022-08-02T04:48:04.565Z,100040.09
2022-08-02T04:50:31.889Z,100048.50
2022-08-02T04:52:58.529Z,100050.75
2022-08-02T04:55:28.539Z,100044.19
2022-08-02T04:57:55.792Z,100059.13
2022-08-02T05:00:22.868Z,100052.47
2022-08-02T05:02:49.675Z,100057.16
2022-08-02T05:05:16.692Z,100055.16
2022-08-02T05:07:43.491Z,100021.97
2022-08-02T05:10:10.507Z,100053.19
2022-08-02T05:12:38.638Z,100059.38
2022-08-02T05:15:05.853Z,100049.56
2022-08-02T05:17:32.522Z,100054.47
2022-08-02T05:19:59.200Z,100028.66
2022-08-02T05:22:25.865Z,100042.09
2022-08-02T05:24:52.541Z,100047.81
2022-08-02T05:27:21.878Z,100051.56
2022-08-02T05:29:53.710Z,100043.91
2022-08-02T05:32:23.878Z,100048.50
2022-08-02T05:34:53.338Z,100025.81
2022-08-02T05:37:20.003Z,100046.91
2022-08-02T05:40:13.004Z,100039.81
2022-08-02T05:42:40.858Z,100044.25
2022-08-02T05:45:08.443Z,100037.72
2022-08-02T05:47:35.601Z,100051.13
2022-08-02T05:50:03.080Z,100056.81
2022-08-02T05:52:45.836Z,100055.91
2022-08-02T05:55:34.724Z,100064.38
2022-08-02T05:58:19.244Z,100072.44
2022-08-02T06:00:49.627Z,100078.19
2022-08-02T06:03:26.198Z,100068.78
2022-08-02T06:06:05.637Z,100062.03
2022-08-02T06:08:43.435Z,100068.78
2022-08-02T06:11:15.190Z,100059.03
2022-08-02T06:13:42.733Z,100065.47
2022-08-02T06:16:14.167Z,100053.13
2022-08-02T06:18:43.103Z,100050.47
2022-08-02T06:22:40.563Z,100060.94
2022-08-02T06:24:00.958Z,100062.41
2022-08-02T06:26:28.551Z,100069.16
2022-08-02T06:28:57.233Z,100055.31
2022-08-02T06:31:23.991Z,100053.44
2022-08-02T06:33:50.730Z,100049.22
2022-08-02T06:36:40.015Z,100061.69
2022-08-02T06:39:32.388Z,100065.66
2022-08-02T06:42:06.662Z,100069.09
2022-08-02T06:44:49.930Z,100024.69
2022-08-02T06:47:18.676Z,100059.84
2022-08-02T06:49:53.043Z,100048.38
2022-08-02T06:52:28.374Z,100045.56
2022-08-02T06:55:00.445Z,100052.69
2022-08-02T06:57:30.868Z,100049.56
2022-08-02T07:00:00.966Z,100057.34
2022-08-02T07:02:29.068Z,100021.66
2022-08-02T07:04:55.910Z,100035.47
2022-08-02T07:07:22.781Z,100045.19
2022-08-02T07:09:56.648Z,100043.09
2022-08-02T07:12:27.678Z,100013.06
2022-08-02T07:14:54.327Z,100049.97
2022-08-02T07:17:21.085Z,100032.00
2022-08-02T07:19:47.824Z,100057.00
2022-08-02T07:22:14.637Z,100050.53
2022-08-02T07:24:41.932Z,100033.69
2022-08-02T07:27:11.622Z,100050.25
2022-08-02T07:29:45.987Z,100042.03
2022-08-02T07:32:23.282Z,100051.06
2022-08-02T07:34:53.146Z,100044.06
2022-08-02T07:37:35.823Z,100032.97
2022-08-02T07:40:14.691Z,99978.19
2022-08-02T07:42:43.659Z,100057.63
2022-08-02T07:45:12.380Z,100047.50
2022-08-02T07:47:43.964Z,100043.28
2022-08-02T07:50:12.311Z,100048.44
2022-08-02T07:52:40.483Z,100043.03
2022-08-02T07:55:08.334Z,100028.41
2022-08-02T07:57:35.200Z,100048.38
2022-08-02T08:00:01.920Z,100048.59
2022-08-02T08:02:38.353Z,100026.03
2022-08-02T08:05:06.950Z,100037.13
2022-08-02T08:07:34.800Z,100053.75
2022-08-02T08:10:01.717Z,100031.53
2022-08-02T08:12:30.064Z,100042.91
2022-08-02T08:14:56.711Z,100043.22
2022-08-02T08:17:23.416Z,100010.84
2022-08-02T08:19:52.607Z,100012.69
2022-08-02T08:22:20.913Z,100028.75
2022-08-02T08:24:48.582Z,100021.63
2022-08-02T08:27:16.498Z,100018.97
2022-08-02T08:29:43.674Z,100019.03
2022-08-02T08:32:30.569Z,100015.81
2022-08-02T08:34:58.493Z,100016.84
2022-08-02T08:37:25.251Z,100017.88
2022-08-02T08:39:56.878Z,100013.19
2022-08-02T08:42:29.166Z,100002.91
2022-08-02T08:44:57.355Z,100013.75
2022-08-02T08:47:33.930Z,100007.34
2022-08-02T08:50:07.106Z,100011.34
2022-08-02T08:52:47.780Z,100009.44
2022-08-02T08:55:16.011Z,99993.78
2022-08-02T08:57:43.633Z,99980.97
2022-08-02T09:00:13.059Z,100002.06
2022-08-02T09:02:43.598Z,99975.03
2022-08-02T09:05:12.179Z,100000.09
2022-08-02T09:07:38.979Z,99991.56
2022-08-02T09:10:44.092Z,99986.50
2022-08-02T09:13:38.225Z,99989.75
2022-08-02T09:16:14.542Z,99984.88
2022-08-02T09:18:47.178Z,99987.28
2022-08-02T09:21:17.503Z,99995.13
2022-08-02T09:23:49.420Z,99982.84
2022-08-02T09:26:21.892Z,99987.38
2022-08-02T09:28:52.281Z,99994.19
2022-08-02T09:31:21.512Z,99995.78
2022-08-02T09:33:54.357Z,99986.13
2022-08-02T09:36:21.957Z,99993.84
2022-08-02T09:38:59.689Z,100000.00
2022-08-02T09:41:29.417Z,99995.75
2022-08-02T09:44:04.763Z,99966.88
2022-08-02T09:46:38.915Z,99990.38
2022-08-02T09:49:16.512Z,99993.81
2022-08-02T09:51:46.924Z,99982.97
2022-08-02T09:54:23.161Z,99986.31
2022-08-02T09:56:55.626Z,99972.38
2022-08-02T09:59:26.699Z,99950.75
2022-08-02T10:02:01.508Z,99926.75
2022-08-02T10:04:31.545Z,99971.84
2022-08-02T10:06:59.949Z,99964.78
2022-08-02T10:09:28.880Z,99962.22
2022-08-02T10:11:55.927Z,99953.56
2022-08-02T10:14:23.935Z,99941.69
2022-08-02T10:16:53.213Z,99967.09
2022-08-02T10:19:59.570Z,99954.53
2022-08-02T10:22:11.091Z,99953.13
2022-08-02T10:24:39.633Z,99948.69
2022-08-02T10:27:16.804Z,99958.63
2022-08-02T10:29:55.670Z,99950.13
2022-08-02T10:32:31.255Z,99948.41
2022-08-02T10:35:18.478Z,99945.13
2022-08-02T10:37:54.554Z,99938.69
2022-08-02T10:40:26.539Z,99941.03
2022-08-02T10:42:55.186Z,99923.03
2022-08-02T10:45:22.903Z,99933.97
2022-08-02T10:48:04.666Z,99925.47
2022-08-02T10:50:46.656Z,99927.00
2022-08-02T10:53:30.932Z,99926.25
2022-08-02T10:56:03.167Z,99922.34
2022-08-02T10:58:34.157Z,99922.00
2022-08-02T11:01:38.479Z,99918.78
2022-08-02T11:04:10.602Z,99908.97
2022-08-02T11:07:07.766Z,99905.19
2022-08-02T11:09:34.985Z,99899.16
2022-08-02T11:12:09.587Z,99901.72
2022-08-02T11:14:39.935Z,99899.19
2022-08-02T11:17:09.227Z,99892.41
2022-08-02T11:20:11.174Z,99892.72
2022-08-02T11:22:39.321Z,99899.13
2022-08-02T11:25:24.067Z,99895.97
2022-08-02T11:27:57.357Z,99895.44
2022-08-02T11:30:44.582Z,99901.44
2022-08-02T11:33:11.226Z,99893.41
2022-08-02T11:35:40.017Z,99874.94
2022-08-02T11:38:16.214Z,99886.03
2022-08-02T11:40:45.090Z,99885.63
2022-08-02T11:43:23.105Z,99882.69
2022-08-02T11:45:53.811Z,99879.03
2022-08-02T11:48:37.018Z,99874.47
2022-08-02T11:51:15.220Z,99867.25
2022-08-02T11:53:44.860Z,99879.09
2022-08-02T11:56:12.484Z,99881.81
2022-08-02T11:58:39.465Z,99876.69
2022-08-02T12:01:08.777Z,99879.94
2022-08-02T12:03:39.425Z,99870.00
2022-08-02T12:06:10.960Z,99875.09
2022-08-02T12:08:43.462Z,99878.63
2022-08-02T12:11:21.543Z,99878.09
2022-08-02T12:13:56.887Z,99883.13
2022-08-02T12:16:43.951Z,99880.63
2022-08-02T12:19:20.021Z,99874.22
2022-08-02T12:21:47.236Z,99871.38
2022-08-02T12:24:14.353Z,99870.28
2022-08-02T12:26:45.278Z,99843.19
2022-08-02T12:29:12.593Z,99791.78
2022-08-02T12:31:57.104Z,99854.38
2022-08-02T12:35:01.943Z,99881.50
2022-08-02T12:37:28.612Z,99856.81
2022-08-02T12:39:55.300Z,99867.50
2022-08-02T12:42:22.284Z,99868.94
2022-08-02T12:44:58.604Z,99871.03
2022-08-02T12:47:31.326Z,99869.69
2022-08-02T12:50:14.994Z,99859.41
2022-08-02T12:52:41.729Z,99852.38
2022-08-02T12:55:21.709Z,99842.72
2022-08-02T12:57:56.535Z,99849.09
2022-08-02T13:00:25.184Z,99843.19
2022-08-02T13:02:52.321Z,99838.16
2022-08-02T13:05:19.714Z,99839.09
2022-08-02T13:07:46.475Z,99844.47
2022-08-02T13:10:13.775Z,99842.72
2022-08-02T13:12:40.719Z,99842.09
2022-08-02T13:15:12.518Z,99847.34
2022-08-02T13:17:55.879Z,99840.38
2022-08-02T13:20:22.541Z,99839.19
2022-08-02T13:22:52.838Z,99830.44
2022-08-02T13:25:23.416Z,99827.25
2022-08-02T13:27:50.654Z,99809.25
2022-08-02T13:30:17.751Z,99804.56
2022-08-02T13:33:11.109Z,99831.59
2022-08-02T13:35:37.848Z,99824.59
2022-08-02T13:38:06.461Z,99829.84
2022-08-02T13:40:49.204Z,99821.06
2022-08-02T13:43:20.073Z,99823.19
2022-08-02T13:45:46.755Z,99812.19
2022-08-02T13:48:16.654Z,99819.81
2022-08-02T13:50:44.869Z,99805.47
2022-08-02T13:53:11.537Z,99808.56
2022-08-02T13:55:39.516Z,99795.84
2022-08-02T13:58:10.251Z,99797.25
2022-08-02T14:00:36.993Z,99798.66
2022-08-02T14:03:08.156Z,99793.09
2022-08-02T14:05:48.566Z,99790.53
2022-08-02T14:08:19.708Z,99802.69
2022-08-02T14:10:47.623Z,99798.91
2022-08-02T14:13:14.568Z,99767.66
2022-08-02T14:15:41.291Z,99790.81
2022-08-02T14:18:07.976Z,99740.44
2022-08-02T14:20:34.629Z,99797.31
2022-08-02T14:23:01.311Z,99780.34
2022-08-02T14:25:27.998Z,99764.84
2022-08-02T14:27:54.706Z,99794.03
2022-08-02T14:30:23.207Z,99793.31
2022-08-02T14:32:50.810Z,99785.16
2022-08-02T14:35:17.520Z,99788.22
2022-08-02T14:37:44.181Z,99799.63
2022-08-02T14:40:27.711Z,99793.63
2022-08-02T14:42:55.287Z,99783.00
2022-08-02T14:45:22.196Z,99780.25
2022-08-02T14:47:49.369Z,99779.13
2022-08-02T14:50:17.952Z,99772.56
2022-08-02T14:52:49.024Z,99777.09
2022-08-02T14:55:17.438Z,99757.88
2022-08-02T14:57:44.094Z,99738.66
2022-08-02T15:00:11.366Z,99763.03
2022-08-02T15:02:38.030Z,99751.78
2022-08-02T15:05:04.990Z,99773.75
2022-08-02T15:07:31.704Z,99768.38
2022-08-02T15:09:58.417Z,99766.06
2022-08-02T15:12:25.178Z,99764.84
2022-08-02T15:14:53.294Z,99772.94
2022-08-02T15:17:19.960Z,99760.47
2022-08-02T15:19:57.621Z,99770.59
2022-08-02T15:22:27.198Z,99766.97
2022-08-02T15:24:55.713Z,99749.38
2022-08-02T15:27:22.609Z,99760.31
2022-08-02T15:29:49.521Z,99764.97
2022-08-02T15:32:20.657Z,99768.19
2022-08-02T15:34:47.635Z,99757.41
2022-08-02T15:37:14.334Z,99759.66
2022-08-02T15:40:01.313Z,99765.41
2022-08-02T15:42:54.435Z,99762.50
2022-08-02T15:45:21.207Z,99763.00
2022-08-02T15:47:50.623Z,99767.94
2022-08-02T15:50:18.399Z,99739.22
2022-08-02T15:52:45.052Z,99762.59
2022-08-02T15:55:11.701Z,99754.56
2022-08-02T15:57:38.388Z,99765.00
2022-08-02T16:00:17.843Z,99760.81
2022-08-02T16:02:47.395Z,99764.34
2022-08-02T16:05:17.428Z,99767.19
2022-08-02T16:07:44.739Z,99753.91
2022-08-02T16:10:11.586Z,99742.09
2022-08-02T16:12:38.335Z,99751.84
2022-08-02T16:15:05.479Z,99747.38
2022-08-02T16:17:48.791Z,99730.25
2022-08-02T16:20:18.744Z,99736.28
2022-08-02T16:22:45.424Z,99737.16
2022-08-02T16:25:16.970Z,99747.19
2022-08-02T16:27:57.574Z,99745.78
2022-08-02T16:30:31.194Z,99738.84
2022-08-02T16:32:57.841Z,99739.19
2022-08-02T16:35:24.456Z,99735.66
2022-08-02T16:37:52.684Z,99740.22
2022-08-02T16:40:20.983Z,99720.00
2022-08-02T16:42:48.779Z,99725.75
2022-08-02T16:45:20.673Z,99734.72
2022-08-02T16:47:57.326Z,99703.06
2022-08-02T16:50:28.578Z,99735.22
2022-08-02T16:52:57.758Z,99729.97
2022-08-02T16:55:25.428Z,99728.38
2022-08-02T16:57:52.687Z,99712.09
2022-08-02T17:00:23.907Z,99720.09
2022-08-02T17:02:50.561Z,99726.56
2022-08-02T17:05:17.365Z,99726.38
2022-08-02T17:08:15.614Z,99727.97
2022-08-02T17:10:33.784Z,99732.72
2022-08-02T17:13:11.550Z,99730.25
2022-08-02T17:16:08.194Z,99727.81
2022-08-02T17:18:27.876Z,99715.94
2022-08-02T17:20:58.090Z,99702.47
2022-08-02T17:24:04.399Z,99735.19
2022-08-02T17:26:13.359Z,99710.69
2022-08-02T17:28:50.837Z,99737.22
2022-08-02T17:31:29.626Z,99736.44
2022-08-02T17:33:56.676Z,99733.50
2022-08-02T17:36:25.955Z,99729.66
2022-08-02T17:38:52.652Z,99737.94
2022-08-02T17:41:19.469Z,99735.97
2022-08-02T17:44:05.347Z,99739.09
2022-08-02T17:46:32.143Z,99729.13
2022-08-02T17:49:17.407Z,99743.41
2022-08-02T17:52:49.394Z,99743.53
2022-08-02T17:54:31.189Z,99742.50
2022-08-02T17:56:57.881Z,99712.44
2022-08-02T17:59:30.731Z,99735.13
2022-08-02T18:02:01.106Z,99741.34
2022-08-02T18:04:31.655Z,99725.19
2022-08-02T18:07:04.181Z,99738.16
2022-08-02T18:09:32.138Z,99735.56
2022-08-02T18:11:58.843Z,99748.88
2022-08-02T18:14:26.373Z,99753.88
2022-08-02T18:16:53.344Z,99715.16
2022-08-02T18:19:20.455Z,99749.41
2022-08-02T18:21:48.233Z,99743.13
2022-08-02T18:24:15.842Z,99749.66
2022-08-02T18:26:43.485Z,99729.69
2022-08-02T18:29:10.933Z,99755.44
2022-08-02T18:31:40.164Z,99749.16
2022-08-02T18:34:19.536Z,99742.78
2022-08-02T18:36:51.008Z,99734.34
2022-08-02T18:39:17.695Z,99759.69
2022-08-02T18:41:44.783Z,99753.41
2022-08-02T18:44:15.678Z,99731.66
2022-08-02T18:47:08.779Z,99771.59
2022-08-02T18:49:42.942Z,99750.25
2022-08-02T18:52:15.302Z,99741.22
2022-08-02T18:54:42.332Z,99744.66
2022-08-02T18:58:01.862Z,99756.06
2022-08-02T19:00:20.626Z,99778.31
2022-08-02T19:03:04.758Z,99758.50
2022-08-02T19:08:26.154Z,99758.63
2022-08-02T19:10:55.998Z,99738.63
2022-08-02T19:13:23.812Z,99758.09
2022-08-02T19:15:50.554Z,99755.22
2022-08-02T19:18:17.292Z,99759.66
2022-08-02T19:20:48.305Z,99694.38
2022-08-02T19:23:17.086Z,99741.09
2022-08-02T19:25:50.057Z,99763.59
2022-08-02T19:28:25.746Z,99761.00
2022-08-02T19:30:53.673Z,99765.38
2022-08-02T19:33:25.119Z,99723.53
2022-08-02T19:36:07.324Z,99766.00
2022-08-02T19:38:34.353Z,99768.25
2022-08-02T19:41:01.587Z,99760.78
2022-08-02T19:44:26.324Z,99768.69
2022-08-02T19:46:15.869Z,99789.63
2022-08-02T19:48:46.012Z,99781.56
2022-08-02T19:51:14.211Z,99780.81
2022-08-02T19:53:47.179Z,99770.25
2022-08-02T19:56:25.670Z,99790.34
2022-08-02T19:59:14.116Z,99783.88
2022-08-02T20:01:44.941Z,99789.88
2022-08-02T20:04:15.569Z,99775.53
2022-08-02T20:06:50.731Z,99757.44
2022-08-02T20:09:21.202Z,99793.19
2022-08-02T20:11:54.442Z,99782.63
2022-08-02T20:14:27.634Z,99772.91
2022-08-02T20:16:57.994Z,99802.41
2022-08-02T20:19:25.303Z,99796.72
2022-08-02T20:21:59.651Z,99796.97
2022-08-02T20:24:28.308Z,99805.38
2022-08-02T20:26:59.250Z,99806.19
2022-08-02T20:29:42.813Z,99802.41
2022-08-02T20:32:11.969Z,99801.56
2022-08-02T20:34:38.692Z,99789.94
2022-08-02T20:38:00.576Z,99798.84
2022-08-02T20:39:52.561Z,99783.34
2022-08-02T20:42:22.838Z,99794.69
2022-08-02T20:44:54.517Z,99783.06
2022-08-02T20:47:27.602Z,99796.31
2022-08-02T20:50:14.225Z,99806.56
2022-08-02T20:52:42.480Z,99794.63
2022-08-02T20:55:09.451Z,99810.03
2022-08-02T20:58:00.452Z,99801.63
2022-08-02T21:00:28.259Z,99716.50
2022-08-02T21:02:55.538Z,99785.31
2022-08-02T21:05:26.776Z,99762.53
2022-08-02T21:08:13.871Z,99802.06
2022-08-02T21:10:43.647Z,99796.06
2022-08-02T21:13:22.489Z,99760.06
2022-08-02T21:15:51.563Z,99817.88
2022-08-02T21:18:23.384Z,99811.28
2022-08-02T21:21:00.308Z,99795.72
2022-08-02T21:23:28.735Z,99781.91
2022-08-02T21:25:57.875Z,99804.41
2022-08-02T21:28:43.419Z,99785.25
2022-08-02T21:31:12.421Z,99772.50
2022-08-02T21:33:57.123Z,99774.16
2022-08-02T21:36:31.419Z,99798.81
2022-08-02T21:39:05.198Z,99784.66
2022-08-02T21:41:39.917Z,99764.41
2022-08-02T21:44:16.812Z,99803.66
2022-08-02T21:46:49.169Z,99797.34
2022-08-02T21:49:20.786Z,99806.00
2022-08-02T21:51:54.609Z,99788.69
2022-08-02T21:54:22.420Z,99727.09
2022-08-02T21:56:51.854Z,99794.31
2022-08-02T21:59:25.689Z,99804.31
2022-08-02T22:01:57.763Z,99804.41
2022-08-02T22:04:27.910Z,99806.44
2022-08-02T22:06:55.419Z,99813.97
2022-08-02T22:09:43.506Z,99810.72
2022-08-02T22:12:16.647Z,99824.41
2022-08-02T22:14:54.225Z,99772.25
2022-08-02T22:17:46.797Z,99824.53
2022-08-02T22:23:02.166Z,99830.28
2022-08-02T22:25:37.575Z,99794.78
2022-08-02T22:28:37.217Z,99829.47
2022-08-02T22:30:53.721Z,99815.16
2022-08-02T22:33:42.559Z,99794.00
2022-08-02T22:36:28.081Z,99806.47
2022-08-02T22:38:55.237Z,99813.50
2022-08-02T22:41:22.445Z,99795.19
2022-08-02T22:43:49.461Z,99791.63
2022-08-02T22:46:16.832Z,99780.41
2022-08-02T22:48:44.412Z,99810.28
2022-08-02T22:51:13.030Z,99809.78
2022-08-02T22:53:44.029Z,99822.53
2022-08-02T22:56:14.391Z,99807.22
2022-08-02T22:58:46.793Z,99757.84
2022-08-02T22:59:04.667Z,99825.78
2022-08-02T22:59:10.288Z,99832.16
2022-08-02T23:01:29.382Z,99838.94
2022-08-02T23:03:56.075Z,99831.22
2022-08-02T23:06:23.038Z,99833.53
2022-08-02T23:08:49.940Z,99816.09
2022-08-02T23:11:16.637Z,99817.22
2022-08-02T23:13:43.380Z,99820.00
2022-08-02T23:16:28.285Z,99818.59
2022-08-02T23:19:13.919Z,99800.06
2022-08-02T23:22:01.220Z,99847.91
2022-08-02T23:24:28.404Z,99839.69
2022-08-02T23:26:55.024Z,99848.28
2022-08-02T23:29:21.660Z,99783.97
2022-08-02T23:31:48.350Z,99838.09
2022-08-02T23:34:16.095Z,99828.81
2022-08-02T23:36:42.760Z,99826.41
2022-08-02T23:39:09.366Z,99834.78
2022-08-02T23:41:36.006Z,99831.69
2022-08-02T23:44:17.708Z,99828.81
2022-08-02T23:46:46.504Z,99851.16
2022-08-02T23:49:14.586Z,99858.63
2022-08-02T23:51:41.471Z,99852.75
2022-08-02T23:54:08.829Z,99842.41
2022-08-02T23:56:36.216Z,99843.38
2022-08-02T23:59:03.894Z,99832.53
